createdAt,value
2024-03-16T00:00:50.257Z,60.51
2024-03-16T00:03:19.871Z,60.56
2024-03-16T00:05:47.036Z,60.53
2024-03-16T00:08:22.193Z,60.70
2024-03-16T00:10:48.559Z,60.77
2024-03-16T00:13:15.012Z,60.84
2024-03-16T00:15:42.030Z,60.91
2024-03-16T00:18:10.399Z,60.86
2024-03-16T00:20:41.006Z,60.83
2024-03-16T00:23:10.526Z,60.73
2024-03-16T00:25:40.933Z,60.70
2024-03-16T00:28:08.168Z,60.78
2024-03-16T00:30:34.549Z,60.81
2024-03-16T00:33:01.630Z,60.96
2024-03-16T00:35:30.972Z,60.99
2024-03-16T00:37:57.302Z,61.02
2024-03-16T00:40:26.687Z,61.06
2024-03-16T00:42:53.056Z,61.17
2024-03-16T00:45:19.570Z,61.22
2024-03-16T00:47:46.064Z,61.17
2024-03-16T00:50:14.979Z,61.21
2024-03-16T00:52:41.442Z,61.13
2024-03-16T00:55:07.879Z,61.19
2024-03-16T00:57:34.389Z,61.11
2024-03-16T01:00:00.896Z,61.15
2024-03-16T01:02:30.275Z,61.04
2024-03-16T01:04:57.041Z,61.18
2024-03-16T01:07:26.108Z,61.14
2024-03-16T01:09:52.656Z,61.13
2024-03-16T01:12:19.170Z,61.10
2024-03-16T01:14:45.520Z,61.08
2024-03-16T01:17:11.643Z,61.14
2024-03-16T01:19:42.217Z,61.12
2024-03-16T01:22:19.538Z,61.36
2024-03-16T01:24:51.736Z,61.32
2024-03-16T01:27:21.002Z,61.23
2024-03-16T01:29:50.159Z,61.20
2024-03-16T01:32:19.220Z,61.25
2024-03-16T01:34:54.288Z,61.43
2024-03-16T01:37:23.888Z,61.39
2024-03-16T01:39:56.387Z,61.37
2024-03-16T01:42:33.360Z,61.50
2024-03-16T01:45:16.991Z,61.49
2024-03-16T01:47:43.883Z,61.59
2024-03-16T01:50:13.428Z,61.62
2024-03-16T01:52:52.387Z,61.65
2024-03-16T01:55:20.260Z,61.66
2024-03-16T01:57:52.418Z,61.72
2024-03-16T02:00:28.300Z,61.39
2024-03-16T02:02:57.529Z,61.39
2024-03-16T02:05:26.691Z,61.47
2024-03-16T02:07:53.565Z,61.64
2024-03-16T02:10:20.535Z,61.76
2024-03-16T02:12:49.525Z,61.75
2024-03-16T02:15:24.991Z,61.74
2024-03-16T02:17:54.305Z,61.86
2024-03-16T02:20:20.751Z,61.82
2024-03-16T02:22:48.727Z,61.81
2024-03-16T02:25:15.669Z,61.84
2024-03-16T02:27:44.202Z,61.90
2024-03-16T02:30:11.373Z,62.10
2024-03-16T02:32:38.174Z,62.18
2024-03-16T02:35:08.305Z,62.21
2024-03-16T02:37:35.074Z,62.19
2024-03-16T02:40:04.881Z,62.22
2024-03-16T02:42:31.597Z,62.22
2024-03-16T02:44:58.203Z,62.25
2024-03-16T02:47:24.845Z,62.37
2024-03-16T02:49:51.687Z,62.44
2024-03-16T02:52:18.305Z,62.54
2024-03-16T02:54:44.746Z,62.53
2024-03-16T02:57:11.360Z,62.40
2024-03-16T02:59:45.019Z,62.53
2024-03-16T03:02:11.282Z,62.41
2024-03-16T03:04:37.619Z,62.51
2024-03-16T03:07:06.472Z,62.30
2024-03-16T03:09:33.991Z,62.05
2024-03-16T03:12:05.254Z,61.94
2024-03-16T03:14:32.481Z,61.71
2024-03-16T03:16:59.360Z,61.53
2024-03-16T03:19:25.478Z,61.54
2024-03-16T03:21:51.751Z,61.35
2024-03-16T03:24:18.206Z,61.35
2024-03-16T03:26:44.657Z,61.16
2024-03-16T03:29:11.009Z,60.95
2024-03-16T03:31:37.503Z,60.82
2024-03-16T03:34:06.306Z,60.80
2024-03-16T03:36:44.618Z,60.69
2024-03-16T03:39:14.888Z,60.79
2024-03-16T03:41:41.464Z,60.75
2024-03-16T03:44:25.069Z,60.68
2024-03-16T03:46:57.255Z,60.78
2024-03-16T03:49:28.997Z,60.80
2024-03-16T03:51:59.129Z,60.84
2024-03-16T03:54:27.687Z,60.87
2024-03-16T03:56:59.888Z,60.62
2024-03-16T03:59:38.849Z,60.65
2024-03-16T04:02:08.246Z,60.58
2024-03-16T04:04:34.930Z,60.68
2024-03-16T04:07:01.426Z,60.68
2024-03-16T04:09:27.854Z,60.73
2024-03-16T04:11:56.393Z,60.62
2024-03-16T04:14:22.833Z,60.62
2024-03-16T04:16:49.290Z,60.72
2024-03-16T04:19:18.766Z,60.68
2024-03-16T04:21:45.402Z,60.67
2024-03-16T04:24:11.781Z,60.70
2024-03-16T04:26:40.621Z,60.70
2024-03-16T04:29:06.757Z,60.70
2024-03-16T04:31:42.199Z,60.73
2024-03-16T04:34:08.441Z,60.71
2024-03-16T04:36:34.920Z,60.77
2024-03-16T04:39:08.465Z,60.76
2024-03-16T04:41:34.708Z,60.77
2024-03-16T04:44:10.500Z,60.75
2024-03-16T04:46:36.901Z,60.73
2024-03-16T04:49:03.386Z,60.85
2024-03-16T04:51:32.704Z,60.91
2024-03-16T04:54:01.314Z,60.77
2024-03-16T04:56:28.571Z,60.77
2024-03-16T04:58:54.911Z,60.87
2024-03-16T05:01:25.039Z,60.80
2024-03-16T05:03:54.184Z,60.79
2024-03-16T05:06:28.207Z,60.79
2024-03-16T05:08:56.720Z,60.88
2024-03-16T05:11:36.729Z,61.00
2024-03-16T05:14:07.030Z,60.96
2024-03-16T05:16:40.155Z,61.04
2024-03-16T05:19:12.111Z,60.98
2024-03-16T05:21:38.435Z,61.06
2024-03-16T05:24:05.210Z,60.83
2024-03-16T05:26:39.179Z,60.71
2024-03-16T05:29:06.549Z,60.75
2024-03-16T05:31:33.378Z,60.66
2024-03-16T05:34:02.915Z,60.52
2024-03-16T05:36:29.199Z,60.52
2024-03-16T05:38:55.595Z,60.41
2024-03-16T05:41:22.067Z,60.35
2024-03-16T05:43:48.336Z,60.10
2024-03-16T05:46:14.546Z,60.02
2024-03-16T05:48:50.069Z,59.77
2024-03-16T05:51:19.787Z,59.54
2024-03-16T05:53:49.093Z,59.16
2024-03-16T05:56:15.402Z,58.73
2024-03-16T05:58:44.376Z,58.53
2024-03-16T06:01:11.086Z,58.29
2024-03-16T06:03:40.022Z,58.13
2024-03-16T06:06:08.896Z,57.87
2024-03-16T06:08:37.305Z,57.20
2024-03-16T06:11:04.345Z,56.56
2024-03-16T06:13:32.906Z,56.06
2024-03-16T06:15:59.117Z,55.69
2024-03-16T06:18:28.613Z,55.51
2024-03-16T06:20:58.088Z,55.05
2024-03-16T06:23:27.470Z,54.84
2024-03-16T06:26:01.845Z,54.42
2024-03-16T06:28:30.638Z,53.78
2024-03-16T06:31:09.210Z,53.16
2024-03-16T06:33:37.227Z,52.68
2024-03-16T06:36:04.038Z,52.41
2024-03-16T06:38:32.793Z,52.06
2024-03-16T06:41:04.814Z,51.85
2024-03-16T06:43:33.283Z,51.31
2024-03-16T06:46:01.372Z,50.39
2024-03-16T06:48:27.967Z,49.82
2024-03-16T06:50:54.719Z,49.72
2024-03-16T06:53:21.355Z,49.50
2024-03-16T06:55:49.850Z,49.51
2024-03-16T06:58:18.492Z,49.25
2024-03-16T07:00:45.079Z,48.32
2024-03-16T07:03:14.080Z,47.21
2024-03-16T07:05:40.350Z,45.80
2024-03-16T07:08:10.220Z,44.82
2024-03-16T07:10:38.426Z,43.93
2024-03-16T07:13:06.402Z,42.63
2024-03-16T07:15:33.550Z,41.57
2024-03-16T07:18:00.007Z,41.02
2024-03-16T07:20:35.680Z,39.91
2024-03-16T07:23:03.056Z,38.89
2024-03-16T07:25:30.423Z,38.20
2024-03-16T07:27:59.928Z,37.05
2024-03-16T07:30:26.118Z,36.12
2024-03-16T07:32:56.812Z,35.35
2024-03-16T07:35:23.352Z,34.36
2024-03-16T07:37:49.677Z,33.44
2024-03-16T07:40:16.265Z,32.57
2024-03-16T07:42:42.689Z,31.96
2024-03-16T07:45:09.438Z,31.50
2024-03-16T07:47:36.210Z,30.82
2024-03-16T07:50:03.971Z,30.04
2024-03-16T07:52:33.333Z,29.72
2024-03-16T07:55:02.661Z,29.62
2024-03-16T07:57:32.034Z,29.28
2024-03-16T07:59:59.341Z,29.23
2024-03-16T08:02:25.940Z,29.48
2024-03-16T08:04:52.296Z,28.50
2024-03-16T08:07:22.055Z,28.57
2024-03-16T08:09:48.271Z,28.31
2024-03-16T08:12:17.329Z,28.93
2024-03-16T08:14:43.765Z,29.48
2024-03-16T08:17:10.194Z,29.66
2024-03-16T08:19:39.346Z,30.00
2024-03-16T08:22:05.727Z,29.31
2024-03-16T08:24:33.145Z,29.23
2024-03-16T08:27:01.216Z,29.56
2024-03-16T08:29:34.681Z,30.09
2024-03-16T08:32:01.017Z,30.40
2024-03-16T08:34:29.267Z,30.55
2024-03-16T08:36:59.137Z,29.89
2024-03-16T08:39:25.664Z,30.67
2024-03-16T08:41:52.351Z,30.66
2024-03-16T08:44:19.131Z,30.20
2024-03-16T08:46:47.950Z,30.18
2024-03-16T08:49:14.236Z,30.10
2024-03-16T08:51:40.445Z,29.74
2024-03-16T08:54:06.844Z,30.00
2024-03-16T08:56:33.701Z,30.03
2024-03-16T08:59:03.211Z,30.27
2024-03-16T09:01:29.914Z,30.07
2024-03-16T09:03:56.166Z,30.87
2024-03-16T09:06:25.321Z,31.06
2024-03-16T09:08:51.901Z,30.64
2024-03-16T09:11:18.135Z,30.28
2024-03-16T09:13:46.931Z,30.45
2024-03-16T09:16:13.334Z,30.23
2024-03-16T09:18:40.065Z,29.84
2024-03-16T09:21:06.231Z,30.01
2024-03-16T09:23:32.466Z,30.08
2024-03-16T09:26:01.662Z,30.22
2024-03-16T09:28:27.857Z,29.89
2024-03-16T09:30:56.767Z,29.46
2024-03-16T09:33:23.856Z,29.36
2024-03-16T09:35:53.123Z,29.93
2024-03-16T09:38:19.462Z,30.19
2024-03-16T09:40:52.476Z,29.93
2024-03-16T09:43:19.107Z,30.17
2024-03-16T09:45:47.259Z,30.13
2024-03-16T09:48:17.377Z,30.03
2024-03-16T09:50:52.888Z,30.07
2024-03-16T09:53:31.445Z,29.85
2024-03-16T09:56:05.103Z,29.97
2024-03-16T09:58:31.743Z,30.12
2024-03-16T10:01:02.248Z,30.07
2024-03-16T10:03:35.508Z,30.11
2024-03-16T10:06:08.615Z,29.82
2024-03-16T10:08:41.307Z,29.67
2024-03-16T10:11:19.338Z,30.48
2024-03-16T10:13:54.089Z,30.69
2024-03-16T10:16:20.642Z,31.06
2024-03-16T10:18:53.194Z,31.02
2024-03-16T10:21:19.389Z,30.72
2024-03-16T10:23:48.161Z,30.71
2024-03-16T10:26:20.771Z,30.61
2024-03-16T10:28:47.379Z,30.83
2024-03-16T10:31:14.200Z,30.85
2024-03-16T10:33:40.466Z,30.73
2024-03-16T10:36:12.703Z,30.77
2024-03-16T10:38:42.686Z,30.46
2024-03-16T10:41:13.140Z,30.46
2024-03-16T10:43:40.218Z,30.61
2024-03-16T10:46:10.028Z,30.46
2024-03-16T10:48:36.987Z,30.75
2024-03-16T10:51:13.596Z,30.61
2024-03-16T10:53:40.212Z,31.01
2024-03-16T10:56:18.643Z,31.45
2024-03-16T10:58:45.235Z,31.37
2024-03-16T11:01:21.974Z,31.28
2024-03-16T11:03:55.573Z,31.17
2024-03-16T11:06:23.837Z,31.25
2024-03-16T11:08:52.582Z,31.13
2024-03-16T11:11:21.451Z,31.32
2024-03-16T11:13:59.810Z,31.92
2024-03-16T11:16:28.733Z,31.61
2024-03-16T11:19:20.144Z,31.23
2024-03-16T11:21:53.180Z,31.31
2024-03-16T11:24:21.387Z,31.48
2024-03-16T11:26:50.395Z,31.38
2024-03-16T11:29:24.894Z,31.56
2024-03-16T11:32:00.072Z,31.50
2024-03-16T11:34:26.387Z,31.51
2024-03-16T11:37:04.940Z,31.71
2024-03-16T11:39:36.519Z,31.98
2024-03-16T11:42:15.703Z,31.73
2024-03-16T11:44:47.750Z,31.74
2024-03-16T11:47:16.184Z,31.87
2024-03-16T11:49:42.507Z,32.00
2024-03-16T11:52:08.631Z,32.32
2024-03-16T11:54:35.074Z,32.33
2024-03-16T11:57:01.680Z,31.84
2024-03-16T11:59:28.848Z,31.73
2024-03-16T12:01:56.665Z,32.39
2024-03-16T12:04:27.200Z,32.76
2024-03-16T12:06:57.373Z,32.82
2024-03-16T12:09:36.718Z,33.06
2024-03-16T12:12:05.172Z,33.15
2024-03-16T12:14:38.907Z,33.05
2024-03-16T12:17:09.925Z,32.98
2024-03-16T12:19:38.860Z,33.31
2024-03-16T12:22:15.809Z,33.14
2024-03-16T12:24:52.575Z,33.35
2024-03-16T12:27:22.863Z,33.52
2024-03-16T12:30:00.720Z,33.24
2024-03-16T12:32:33.078Z,33.09
2024-03-16T12:34:59.384Z,33.04
2024-03-16T12:37:28.368Z,33.26
2024-03-16T12:39:55.168Z,33.32
2024-03-16T12:42:21.482Z,33.67
2024-03-16T12:44:47.698Z,33.69
2024-03-16T12:47:18.339Z,33.75
2024-03-16T12:49:44.976Z,33.86
2024-03-16T12:52:14.962Z,34.01
2024-03-16T12:54:41.725Z,33.90
2024-03-16T12:57:09.718Z,33.88
2024-03-16T12:59:36.897Z,33.95
2024-03-16T13:02:03.606Z,33.73
2024-03-16T13:04:29.917Z,33.78
2024-03-16T13:06:56.424Z,34.06
2024-03-16T13:09:27.365Z,34.22
2024-03-16T13:11:56.186Z,34.13
2024-03-16T13:14:42.379Z,34.09
2024-03-16T13:17:08.739Z,34.10
2024-03-16T13:19:35.145Z,34.66
2024-03-16T13:22:01.372Z,34.61
2024-03-16T13:24:30.664Z,34.54
2024-03-16T13:26:57.765Z,34.68
2024-03-16T13:29:24.017Z,34.62
2024-03-16T13:31:54.895Z,34.62
2024-03-16T13:34:21.815Z,34.30
2024-03-16T13:36:48.870Z,34.44
2024-03-16T13:39:17.477Z,34.61
2024-03-16T13:41:46.519Z,34.83
2024-03-16T13:44:13.138Z,34.77
2024-03-16T13:46:39.481Z,34.65
2024-03-16T13:49:06.385Z,34.69
2024-03-16T13:51:33.676Z,34.82
2024-03-16T13:54:03.454Z,34.72
2024-03-16T13:56:33.258Z,34.78
2024-03-16T13:58:59.650Z,35.05
2024-03-16T14:01:29.925Z,35.08
2024-03-16T14:03:59.839Z,34.97
2024-03-16T14:06:26.371Z,34.67
2024-03-16T14:08:52.694Z,34.51
2024-03-16T14:11:20.134Z,34.66
2024-03-16T14:13:46.449Z,34.80
2024-03-16T14:16:12.816Z,34.63
2024-03-16T14:18:39.163Z,34.49
2024-03-16T14:21:06.765Z,34.25
2024-03-16T14:23:35.150Z,34.53
2024-03-16T14:26:02.962Z,34.48
2024-03-16T14:28:32.682Z,34.41
2024-03-16T14:30:59.714Z,34.54
2024-03-16T14:33:26.084Z,34.69
2024-03-16T14:35:55.037Z,34.68
2024-03-16T14:38:25.786Z,34.24
2024-03-16T14:40:51.893Z,34.50
2024-03-16T14:44:25.260Z,34.39
2024-03-16T14:46:51.680Z,34.72
2024-03-16T14:49:19.503Z,34.60
2024-03-16T14:51:45.777Z,34.47
2024-03-16T14:54:12.404Z,34.82
2024-03-16T14:56:39.206Z,34.81
2024-03-16T14:59:05.445Z,34.70
2024-03-16T15:01:32.620Z,34.64
2024-03-16T15:04:04.246Z,34.55
2024-03-16T15:06:31.301Z,34.64
2024-03-16T15:08:58.219Z,34.84
2024-03-16T15:11:24.982Z,34.86
2024-03-16T15:13:52.249Z,34.85
2024-03-16T15:16:22.429Z,34.90
2024-03-16T15:18:49.420Z,34.86
2024-03-16T15:21:18.496Z,34.98
2024-03-16T15:23:47.770Z,34.62
2024-03-16T15:26:30.073Z,34.60
2024-03-16T15:28:57.255Z,34.81
2024-03-16T15:31:23.423Z,35.00
2024-03-16T15:33:49.767Z,34.99
2024-03-16T15:36:16.063Z,34.88
2024-03-16T15:38:42.391Z,34.86
2024-03-16T15:41:08.742Z,34.75
2024-03-16T15:43:35.288Z,34.79
2024-03-16T15:46:01.606Z,34.70
2024-03-16T15:48:28.242Z,34.78
2024-03-16T15:50:54.564Z,34.93
2024-03-16T15:53:21.079Z,35.35
2024-03-16T15:55:48.680Z,35.65
2024-03-16T15:58:17.653Z,36.26
2024-03-16T16:00:43.793Z,36.71
2024-03-16T16:03:10.909Z,37.04
2024-03-16T16:05:38.141Z,37.68
2024-03-16T16:08:05.437Z,37.84
2024-03-16T16:10:31.665Z,38.15
2024-03-16T16:13:00.438Z,38.44
2024-03-16T16:18:12.721Z,38.76
2024-03-16T16:20:39.136Z,39.11
2024-03-16T16:23:07.676Z,39.50
2024-03-16T16:25:35.703Z,39.93
2024-03-16T16:28:12.315Z,40.17
2024-03-16T16:30:38.720Z,40.56
2024-03-16T16:33:07.957Z,40.90
2024-03-16T16:35:37.728Z,41.29
2024-03-16T16:38:07.727Z,41.65
2024-03-16T16:40:35.829Z,41.88
2024-03-16T16:43:05.850Z,42.04
2024-03-16T16:45:34.834Z,42.10
2024-03-16T16:48:27.711Z,42.38
2024-03-16T16:50:57.946Z,42.51
2024-03-16T16:53:33.386Z,42.68
2024-03-16T16:56:03.265Z,42.91
2024-03-16T16:58:43.060Z,43.16
2024-03-16T17:01:19.713Z,43.27
2024-03-16T17:03:56.956Z,43.29
2024-03-16T17:06:28.048Z,43.59
2024-03-16T17:08:58.696Z,43.77
2024-03-16T17:11:27.589Z,43.85
2024-03-16T17:13:54.372Z,43.95
2024-03-16T17:16:33.403Z,44.12
2024-03-16T17:19:00.507Z,44.18
2024-03-16T17:21:33.839Z,44.09
2024-03-16T17:24:03.042Z,44.39
2024-03-16T17:26:42.806Z,44.30
2024-03-16T17:32:07.582Z,44.61
2024-03-16T17:34:36.889Z,44.66
2024-03-16T17:37:07.926Z,44.77
2024-03-16T17:39:34.190Z,44.87
2024-03-16T17:42:00.369Z,45.00
2024-03-16T17:44:34.960Z,45.10
2024-03-16T17:47:05.762Z,45.23
2024-03-16T17:49:35.154Z,45.28
2024-03-16T17:52:01.364Z,45.23
2024-03-16T17:54:34.608Z,45.32
2024-03-16T17:57:04.337Z,45.59
2024-03-16T17:59:30.807Z,45.51
2024-03-16T18:02:18.776Z,45.75
2024-03-16T18:04:47.756Z,45.77
2024-03-16T18:07:16.470Z,45.76
2024-03-16T18:09:51.521Z,46.13
2024-03-16T18:12:21.081Z,46.38
2024-03-16T18:14:47.515Z,46.58
2024-03-16T18:17:15.707Z,46.63
2024-03-16T18:19:42.001Z,46.77
2024-03-16T18:22:15.321Z,46.83
2024-03-16T18:24:42.067Z,46.97
2024-03-16T18:27:09.199Z,47.19
2024-03-16T18:29:35.650Z,47.20
2024-03-16T18:32:07.984Z,47.47
2024-03-16T18:35:04.785Z,47.47
2024-03-16T18:37:56.953Z,47.45
2024-03-16T18:40:28.807Z,47.54
2024-03-16T18:43:11.108Z,48.02
2024-03-16T18:45:43.739Z,47.98
2024-03-16T18:48:10.269Z,48.07
2024-03-16T18:50:38.196Z,48.02
2024-03-16T18:53:05.865Z,48.22
2024-03-16T18:55:38.368Z,48.13
2024-03-16T18:58:06.474Z,48.30
2024-03-16T19:00:39.327Z,48.40
2024-03-16T19:03:07.626Z,48.28
2024-03-16T19:05:39.958Z,48.32
2024-03-16T19:08:15.599Z,48.61
2024-03-16T19:10:42.111Z,48.58
2024-03-16T19:13:08.301Z,48.67
2024-03-16T19:15:34.736Z,48.86
2024-03-16T19:18:01.150Z,48.93
2024-03-16T19:20:30.778Z,49.02
2024-03-16T19:22:59.938Z,49.06
2024-03-16T19:25:28.603Z,49.24
2024-03-16T19:27:55.430Z,49.23
2024-03-16T19:30:21.884Z,49.40
2024-03-16T19:32:48.028Z,49.47
2024-03-16T19:35:14.634Z,49.50
2024-03-16T19:37:40.838Z,49.80
2024-03-16T19:40:15.565Z,49.88
2024-03-16T19:42:44.596Z,49.91
2024-03-16T19:45:11.211Z,49.96
2024-03-16T19:47:39.067Z,50.15
2024-03-16T19:50:06.940Z,50.40
2024-03-16T19:52:34.115Z,50.47
2024-03-16T19:55:03.972Z,50.57
2024-03-16T19:57:31.432Z,50.71
2024-03-16T19:59:59.946Z,50.79
2024-03-16T20:02:28.972Z,51.01
2024-03-16T20:04:57.772Z,51.01
2024-03-16T20:07:25.437Z,51.13
2024-03-16T20:09:54.801Z,51.17
2024-03-16T20:12:21.488Z,51.21
2024-03-16T20:14:49.782Z,51.18
2024-03-16T20:17:16.055Z,51.23
2024-03-16T20:19:42.339Z,51.27
2024-03-16T20:22:08.601Z,51.27
2024-03-16T20:24:35.231Z,51.32
2024-03-16T20:27:01.602Z,51.49
2024-03-16T20:29:28.058Z,51.45
2024-03-16T20:31:54.883Z,51.59
2024-03-16T20:34:23.758Z,51.70
2024-03-16T20:36:50.343Z,51.70
2024-03-16T20:39:16.672Z,51.60
2024-03-16T20:41:46.137Z,51.84
2024-03-16T20:45:02.260Z,51.75
2024-03-16T20:47:30.883Z,51.86
2024-03-16T20:50:04.958Z,51.92
2024-03-16T20:52:45.574Z,51.97
2024-03-16T20:56:42.676Z,52.05
2024-03-16T20:59:48.867Z,52.02
2024-03-16T21:03:17.745Z,52.34
2024-03-16T21:06:01.644Z,52.28
2024-03-16T21:08:32.850Z,52.25
2024-03-16T21:11:10.419Z,52.41
2024-03-16T21:13:52.122Z,52.33
2024-03-16T21:17:31.160Z,52.47
2024-03-16T21:20:23.328Z,52.49
2024-03-16T21:22:52.543Z,52.42
2024-03-16T21:25:18.941Z,52.49
2024-03-16T21:27:53.020Z,52.47
2024-03-16T21:30:19.501Z,52.53
2024-03-16T21:32:47.647Z,52.56
2024-03-16T21:35:16.726Z,52.51
2024-03-16T21:37:43.229Z,52.50
2024-03-16T21:40:50.339Z,52.48
2024-03-16T21:46:43.244Z,52.54
2024-03-16T21:50:31.174Z,52.59
2024-03-16T21:52:56.618Z,52.70
2024-03-16T21:58:15.347Z,52.55
2024-03-16T21:59:42.476Z,52.86
2024-03-16T22:02:09.176Z,52.71
2024-03-16T22:04:46.308Z,53.26
2024-03-16T22:07:16.004Z,53.20
2024-03-16T22:09:43.068Z,53.60
2024-03-16T22:12:09.820Z,53.74
2024-03-16T22:14:43.495Z,53.88
2024-03-16T22:17:25.606Z,53.84
2024-03-16T22:19:52.249Z,53.93
2024-03-16T22:22:19.593Z,54.00
2024-03-16T22:24:46.994Z,53.99
2024-03-16T22:27:16.003Z,53.99
2024-03-16T22:29:44.808Z,54.00
2024-03-16T22:32:13.934Z,53.94
2024-03-16T22:34:42.914Z,53.92
2024-03-16T22:37:09.409Z,54.12
2024-03-16T22:39:35.998Z,54.17
2024-03-16T22:42:10.010Z,54.44
2024-03-16T22:44:52.826Z,54.48
2024-03-16T22:47:25.168Z,54.48
2024-03-16T22:49:52.158Z,54.45
2024-03-16T22:52:18.632Z,54.55
2024-03-16T22:54:54.127Z,54.67
2024-03-16T22:57:25.278Z,54.67
2024-03-16T22:59:51.824Z,54.66
2024-03-16T23:02:21.185Z,54.54
2024-03-16T23:05:08.463Z,54.49
2024-03-16T23:07:34.736Z,54.46
2024-03-16T23:10:04.109Z,54.72
2024-03-16T23:12:30.458Z,54.67
2024-03-16T23:14:57.226Z,54.95
2024-03-16T23:17:29.481Z,54.85
2024-03-16T23:19:57.912Z,54.83
2024-03-16T23:22:28.060Z,55.17
2024-03-16T23:24:54.455Z,55.29
2024-03-16T23:27:20.899Z,55.43
2024-03-16T23:29:47.394Z,55.59
2024-03-16T23:32:14.374Z,55.63
2024-03-16T23:34:42.962Z,55.78
2024-03-16T23:37:09.253Z,55.88
2024-03-16T23:39:36.332Z,56.18
2024-03-16T23:42:20.964Z,56.43
2024-03-16T23:44:47.514Z,56.58
2024-03-16T23:47:14.105Z,56.72
2024-03-16T23:49:40.359Z,56.67
2024-03-16T23:52:06.705Z,56.78
2024-03-16T23:54:33.551Z,56.76
2024-03-16T23:56:59.859Z,56.86
2024-03-16T23:59:27.275Z,56.98
